Time;durP1;ratioP1;P1;durP2;ratioP2;P2;SDS_P1;SDS_P2;PMS_P1;PMS_P2;Temp;Humidity;BMP_temperature;BMP_pressure;BME280_temperature;BME280_humidity;BME280_pressure;Samples;Min_cycle;Max_cycle;Signal;HPM_P1;HPM_P2
2023/11/06 13:24:07;;;;;;;5.13;1.02;;;13.70;99.90;;;;;;4993682;27;86593;-65
2023/11/06 13:26:35;;;;;;;7.07;1.13;;;15.30;99.90;;;;;;5010339;27;86364;-64
2023/11/06 13:29:01;;;;;;;5.20;0.77;;;16.60;99.90;;;;;;5035632;27;86391;-60
2023/11/06 13:31:27;;;;;;;5.28;0.90;;;17.40;99.90;;;;;;5034999;27;88313;-59
2023/11/06 13:33:53;;;;;;;2.33;0.88;;;18.10;99.90;;;;;;5035181;27;86713;-59
2023/11/06 13:36:22;;;;;;;4.03;1.10;;;18.50;99.90;;;;;;5037069;27;86632;-61
2023/11/06 13:38:48;;;;;;;7.07;1.23;;;18.90;99.90;;;;;;5034815;27;86583;-64
2023/11/06 13:59:16;;;;;;;9.75;1.92;;;13.70;97.90;;;;;;5344063;23;86861;-81
2023/11/06 14:01:48;;;;;;;8.07;1.20;;;13.30;98.30;;;;;;4894382;28;88794;-78
2023/11/06 14:04:16;;;;;;;7.35;1.15;;;13.20;99.10;;;;;;4909491;28;89879;-77
2023/11/06 14:06:41;;;;;;;5.95;0.80;;;13.00;99.60;;;;;;4881095;28;87444;-77
2023/11/06 14:09:34;;;;;;;7.43;1.00;;;12.90;99.90;;;;;;4897434;28;87308;-76
2023/11/06 14:11:52;;;;;;;4.63;1.00;;;12.70;99.90;;;;;;4887064;28;86940;-77
2023/11/06 14:14:18;;;;;;;4.32;1.08;;;12.60;99.90;;;;;;4883873;28;89983;-77
2023/11/06 14:16:46;;;;;;;10.43;1.00;;;12.50;99.90;;;;;;4898293;28;86872;-77
2023/11/06 14:19:15;;;;;;;8.73;1.17;;;12.40;99.90;;;;;;4883321;28;93120;-79
2023/11/06 14:21:40;;;;;;;6.03;0.85;;;12.20;99.90;;;;;;4882796;28;87106;-78
2023/11/06 14:24:07;;;;;;;5.53;1.08;;;12.10;99.90;;;;;;4882807;28;87893;-77
2023/11/06 14:26:33;;;;;;;7.13;0.93;;;11.90;99.90;;;;;;4893034;28;86757;-77
2023/11/06 14:28:59;;;;;;;8.93;1.00;;;11.80;99.90;;;;;;4897918;28;88359;-78
2023/11/06 14:31:25;;;;;;;9.65;1.52;;;11.70;99.90;;;;;;4897441;28;90786;-78
2023/11/06 14:33:50;;;;;;;6.40;0.98;;;11.60;99.90;;;;;;4898652;28;89708;-78
2023/11/06 14:36:16;;;;;;;5.35;0.80;;;11.60;99.90;;;;;;4879818;28;86944;-77
2023/11/06 14:38:42;;;;;;;5.75;1.30;;;11.50;99.90;;;;;;4899459;28;86783;-79
2023/11/06 14:41:07;;;;;;;3.50;0.52;;;11.40;99.90;;;;;;4895641;28;90662;-79
2023/11/06 14:43:36;;;;;;;5.53;0.90;;;11.30;99.90;;;;;;4885006;28;86995;-79
2023/11/06 14:46:04;;;;;;;11.70;1.10;;;11.20;99.90;;;;;;4900997;28;88323;-79
2023/11/06 14:48:29;;;;;;;8.35;1.35;;;11.20;99.90;;;;;;4879406;28;86578;-79
2023/11/06 14:50:57;;;;;;;8.93;1.23;;;11.20;99.90;;;;;;4895607;28;91284;-79
2023/11/06 14:53:23;;;;;;;10.68;1.10;;;11.20;99.90;;;;;;4886021;28;87405;-79
2023/11/06 14:55:49;;;;;;;3.03;0.65;;;11.20;99.90;;;;;;4897162;28;86779;-79
2023/11/06 14:58:14;;;;;;;8.40;1.60;;;11.10;99.90;;;;;;4883475;28;86860;-79
2023/11/06 15:00:41;;;;;;;7.25;0.93;;;11.10;99.90;;;;;;4880286;28;87886;-79
2023/11/06 15:03:07;;;;;;;7.72;1.17;;;11.10;99.90;;;;;;4889448;28;90036;-79
2023/11/06 15:05:34;;;;;;;9.93;1.15;;;11.10;99.90;;;;;;4871361;28;86408;-80
2023/11/06 15:08:00;;;;;;;7.70;1.15;;;11.10;99.90;;;;;;4896675;28;86354;-79
2023/11/06 15:10:26;;;;;;;9.82;1.20;;;11.10;99.90;;;;;;4892622;28;90689;-78
2023/11/06 15:12:52;;;;;;;4.32;1.00;;;11.10;99.90;;;;;;4877248;28;90777;-80
2023/11/06 15:15:21;;;;;;;11.25;1.55;;;11.10;99.90;;;;;;4893113;28;86647;-79
2023/11/06 15:17:52;;;;;;;11.13;1.88;;;11.10;99.90;;;;;;4895183;28;86366;-79
2023/11/06 15:20:20;;;;;;;5.70;1.40;;;11.00;99.90;;;;;;4876530;28;87009;-79
2023/11/06 15:22:47;;;;;;;11.57;0.90;;;11.00;99.90;;;;;;4889508;28;90037;-80
2023/11/06 15:25:18;;;;;;;3.40;1.00;;;11.00;99.90;;;;;;4889960;28;86372;-79
2023/11/06 15:27:49;;;;;;;2.45;0.60;;;11.00;99.90;;;;;;4874623;28;86745;-78
2023/11/06 15:30:15;;;;;;;4.15;0.73;;;11.00;99.90;;;;;;4877210;28;90594;-80
2023/11/06 15:32:45;;;;;;;6.05;0.70;;;11.00;99.90;;;;;;4877980;28;87051;-79
2023/11/06 15:35:15;;;;;;;6.00;0.93;;;11.00;99.90;;;;;;4895931;28;86520;-80
2023/11/06 15:37:41;;;;;;;3.08;0.65;;;11.00;99.90;;;;;;4878389;28;86881;-78
2023/11/06 15:40:09;;;;;;;6.50;0.90;;;10.90;99.90;;;;;;4891261;28;90048;-80
2023/11/06 15:42:35;;;;;;;4.03;0.85;;;10.90;99.90;;;;;;4891087;28;90062;-80
2023/11/06 15:45:01;;;;;;;9.60;0.90;;;10.80;99.90;;;;;;4877728;28;87003;-79
2023/11/06 15:47:27;;;;;;;5.93;0.98;;;10.80;99.90;;;;;;4892963;28;86408;-80
2023/11/06 15:49:53;;;;;;;7.30;0.80;;;10.80;99.90;;;;;;4881519;28;88700;-79
2023/11/06 15:52:24;;;;;;;2.83;0.93;;;10.80;99.90;;;;;;4879326;28;86562;-79
2023/11/06 15:54:51;;;;;;;5.88;0.82;;;10.70;99.90;;;;;;4881972;28;86438;-79
2023/11/06 15:57:19;;;;;;;5.07;0.75;;;10.60;99.90;;;;;;4879038;28;86700;-79
2023/11/06 15:59:53;;;;;;;4.05;0.70;;;10.60;99.90;;;;;;4892463;28;90763;-79
2023/11/06 16:02:19;;;;;;;5.05;1.00;;;10.60;99.90;;;;;;4896911;28;90106;-79
2023/11/06 16:04:48;;;;;;;5.97;1.08;;;10.50;99.90;;;;;;4881448;28;85869;-79
2023/11/06 16:07:15;;;;;;;4.65;0.70;;;10.50;99.90;;;;;;4887298;28;86965;-79
2023/11/06 16:09:43;;;;;;;2.95;0.50;;;10.40;99.90;;;;;;4889427;28;90608;-79
2023/11/06 16:12:09;;;;;;;7.43;1.08;;;10.40;99.90;;;;;;4878511;28;89548;-80
2023/11/06 16:14:35;;;;;;;6.22;1.10;;;10.40;99.90;;;;;;4892679;28;86431;-79
2023/11/06 16:17:01;;;;;;;4.40;0.90;;;10.30;99.90;;;;;;4886701;28;86092;-79
2023/11/06 16:19:27;;;;;;;5.93;1.00;;;10.20;99.90;;;;;;4870880;28;90406;-79
2023/11/06 16:21:53;;;;;;;7.13;0.85;;;10.20;99.90;;;;;;4872172;28;86915;-79
2023/11/06 16:24:18;;;;;;;5.82;1.52;;;10.20;99.90;;;;;;4868857;28;86272;-80
2023/11/06 16:26:45;;;;;;;5.18;0.68;;;10.20;99.90;;;;;;4888289;28;87145;-79
2023/11/06 16:29:12;;;;;;;4.35;0.77;;;10.20;99.90;;;;;;4889260;28;90912;-79
2023/11/06 16:31:45;;;;;;;2.72;0.77;;;10.10;99.90;;;;;;4885448;28;89546;-79
2023/11/06 16:34:12;;;;;;;3.25;0.77;;;10.00;99.90;;;;;;4871774;28;86648;-80
2023/11/06 16:39:37;;;;;;;5.15;1.08;;;10.00;99.90;;;;;;4870717;28;86951;-79
2023/11/06 16:42:07;;;;;;;5.07;1.08;;;9.90;99.90;;;;;;4886688;28;90129;-80
2023/11/06 16:44:33;;;;;;;3.72;0.80;;;9.90;99.90;;;;;;4871280;28;87315;-79
2023/11/06 16:46:58;;;;;;;3.38;0.68;;;9.80;99.90;;;;;;4874326;28;87832;-80
2023/11/06 16:49:26;;;;;;;3.85;1.02;;;9.80;99.90;;;;;;4887715;28;91189;-81
2023/11/06 16:51:56;;;;;;;4.75;1.27;;;9.80;99.90;;;;;;4890811;28;90540;-79
2023/11/06 16:54:24;;;;;;;5.85;1.10;;;9.80;99.90;;;;;;4883784;28;86679;-80
2023/11/06 16:56:51;;;;;;;5.30;1.35;;;9.70;99.90;;;;;;4873650;28;86667;-80
2023/11/06 16:59:16;;;;;;;7.20;1.17;;;9.70;99.90;;;;;;4892470;28;90662;-79
2023/11/06 17:01:42;;;;;;;4.80;1.20;;;9.70;99.90;;;;;;4877995;28;86467;-80
2023/11/06 17:04:09;;;;;;;5.60;1.25;;;9.70;99.90;;;;;;4891653;28;87322;-80
2023/11/06 17:06:35;;;;;;;6.90;1.27;;;9.60;99.90;;;;;;4890675;28;87073;-80
2023/11/06 17:09:02;;;;;;;5.45;1.35;;;9.60;99.90;;;;;;4878993;28;86673;-80
2023/11/06 17:11:28;;;;;;;5.60;0.95;;;9.60;99.90;;;;;;4876254;28;88580;-79
2023/11/06 17:13:54;;;;;;;4.88;0.93;;;9.60;99.90;;;;;;4874790;28;86364;-79
2023/11/06 17:16:21;;;;;;;10.70;1.73;;;9.50;99.90;;;;;;4896522;28;86753;-79
2023/11/06 17:18:49;;;;;;;9.45;1.20;;;9.50;99.90;;;;;;4890295;28;89763;-79
2023/11/06 17:21:19;;;;;;;3.65;1.33;;;9.50;99.90;;;;;;4888815;28;88314;-80
2023/11/06 17:23:46;;;;;;;3.53;1.10;;;9.40;99.90;;;;;;4885590;28;87371;-80
2023/11/06 17:26:12;;;;;;;4.88;1.60;;;9.40;99.90;;;;;;4886936;28;86343;-80
2023/11/06 17:28:38;;;;;;;6.22;1.50;;;9.40;99.90;;;;;;4881714;28;87317;-79
2023/11/06 17:31:04;;;;;;;5.30;1.35;;;9.30;99.90;;;;;;4895485;28;89240;-80
2023/11/06 17:33:30;;;;;;;5.40;1.30;;;9.30;99.90;;;;;;4880560;28;86562;-79
2023/11/06 17:35:55;;;;;;;7.32;1.60;;;9.20;99.90;;;;;;4892772;28;86484;-80
2023/11/06 17:38:21;;;;;;;7.18;1.60;;;9.20;99.90;;;;;;4894269;28;90393;-79
2023/11/06 17:40:47;;;;;;;4.28;1.55;;;9.20;99.90;;;;;;4891487;28;89564;-80
2023/11/06 17:43:13;;;;;;;8.38;1.45;;;9.10;99.90;;;;;;4890990;28;86979;-80
2023/11/06 17:45:39;;;;;;;4.90;1.33;;;9.10;99.90;;;;;;4889169;28;86794;-79
2023/11/06 17:48:07;;;;;;;7.97;1.55;;;9.00;99.90;;;;;;4890097;28;90430;-80
2023/11/06 17:50:34;;;;;;;7.38;1.35;;;9.00;99.90;;;;;;4893099;28;89748;-79
2023/11/06 17:52:59;;;;;;;7.28;1.83;;;8.90;99.90;;;;;;4892568;28;86438;-80
2023/11/06 17:55:26;;;;;;;6.88;1.63;;;8.90;99.90;;;;;;4879863;28;86593;-79
2023/11/06 17:57:52;;;;;;;6.57;1.58;;;8.90;99.90;;;;;;4872777;28;90566;-79
2023/11/06 18:00:19;;;;;;;6.72;1.95;;;8.80;99.90;;;;;;4888752;28;90497;-80
2023/11/06 18:02:44;;;;;;;7.45;2.35;;;8.80;99.90;;;;;;4896097;28;86336;-80
2023/11/06 18:05:11;;;;;;;4.88;1.70;;;8.80;99.90;;;;;;4895509;28;86564;-80
2023/11/06 18:07:37;;;;;;;8.05;1.63;;;8.80;99.90;;;;;;4894868;28;91441;-80
2023/11/06 18:10:07;;;;;;;5.93;1.45;;;8.80;99.90;;;;;;4879711;28;89550;-80
2023/11/06 18:12:35;;;;;;;8.00;2.00;;;8.70;99.90;;;;;;4894859;28;87174;-81
2023/11/06 18:15:00;;;;;;;10.60;1.92;;;8.70;99.90;;;;;;4881656;28;86608;-80
2023/11/06 18:17:26;;;;;;;11.85;2.03;;;8.70;99.90;;;;;;4899318;28;90233;-80
2023/11/06 18:19:52;;;;;;;10.07;2.33;;;8.70;99.90;;;;;;4882883;28;89491;-81
2023/11/06 18:22:18;;;;;;;7.65;2.50;;;8.70;99.90;;;;;;4880853;28;86627;-80
2023/11/06 18:24:44;;;;;;;7.55;1.80;;;8.70;99.90;;;;;;4896842;28;87043;-80
2023/11/06 18:27:10;;;;;;;8.13;2.10;;;8.70;99.90;;;;;;4891655;28;90118;-80
2023/11/06 18:29:36;;;;;;;12.70;2.58;;;8.70;99.90;;;;;;4875264;28;86954;-80
2023/11/06 18:32:01;;;;;;;16.88;2.58;;;8.70;99.90;;;;;;4891396;28;86173;-80
2023/11/06 18:34:27;;;;;;;7.85;2.20;;;8.70;99.90;;;;;;4891267;28;86463;-80
2023/11/06 18:36:53;;;;;;;10.63;1.50;;;8.70;99.90;;;;;;4893941;28;90260;-80
2023/11/06 18:39:18;;;;;;;7.13;1.75;;;8.70;99.90;;;;;;4894498;28;88628;-80
2023/11/06 18:41:45;;;;;;;9.85;2.17;;;8.70;99.90;;;;;;4882113;28;87389;-80
2023/11/06 18:44:13;;;;;;;9.68;1.67;;;8.70;99.90;;;;;;4897076;28;86829;-79
2023/11/06 18:46:39;;;;;;;9.38;2.90;;;8.70;99.90;;;;;;4898565;28;90869;-80
2023/11/06 18:49:05;;;;;;;5.38;1.70;;;8.70;99.90;;;;;;4879619;28;89636;-80
2023/11/06 18:51:32;;;;;;;12.10;1.88;;;8.70;99.90;;;;;;4892937;28;86589;-80
2023/11/06 18:53:58;;;;;;;7.25;1.70;;;8.70;99.90;;;;;;4895522;28;86422;-81
2023/11/06 18:56:24;;;;;;;11.50;2.10;;;8.70;99.90;;;;;;4896493;28;90465;-80
2023/11/06 18:58:50;;;;;;;5.80;1.90;;;8.80;99.90;;;;;;4880363;28;87210;-80
2023/11/06 19:01:16;;;;;;;5.72;1.95;;;8.80;99.90;;;;;;4898164;28;87926;-80
2023/11/06 19:03:44;;;;;;;7.00;2.10;;;8.80;99.90;;;;;;4898150;28;86984;-80
2023/11/06 19:06:11;;;;;;;13.57;2.83;;;8.80;99.90;;;;;;4886013;28;87051;-79
2023/11/06 19:08:37;;;;;;;10.25;1.70;;;8.80;99.90;;;;;;4902433;28;90100;-80
2023/11/06 19:11:04;;;;;;;17.33;3.33;;;8.80;99.90;;;;;;4885291;28;89996;-80
2023/11/06 19:13:30;;;;;;;10.10;1.92;;;8.80;99.90;;;;;;4882339;28;86464;-80
2023/11/06 19:15:56;;;;;;;13.98;2.53;;;8.80;99.90;;;;;;4899557;28;88631;-81
2023/11/06 19:18:22;;;;;;;8.82;2.35;;;8.80;99.90;;;;;;4887351;28;89372;-80
2023/11/06 19:20:48;;;;;;;9.82;2.10;;;8.80;99.90;;;;;;4901198;28;86502;-80
2023/11/06 19:23:14;;;;;;;13.35;2.83;;;8.80;99.90;;;;;;4900197;28;85921;-81
2023/11/06 19:25:39;;;;;;;11.15;2.45;;;8.80;99.90;;;;;;4886808;28;90868;-81
2023/11/06 19:28:05;;;;;;;5.40;2.33;;;8.80;99.90;;;;;;4888325;28;86617;-81
2023/11/06 19:30:32;;;;;;;5.97;2.58;;;8.80;99.90;;;;;;4902220;28;86470;-83
2023/11/06 19:33:04;;;;;;;6.57;1.73;;;8.80;99.90;;;;;;4890013;28;85747;-81
2023/11/06 19:35:33;;;;;;;10.05;1.60;;;8.80;99.90;;;;;;4910019;28;90338;-80
2023/11/06 19:37:59;;;;;;;10.45;2.33;;;8.80;99.90;;;;;;4904280;28;88516;-80
2023/11/06 19:40:25;;;;;;;10.50;3.17;;;8.80;99.90;;;;;;4882751;28;87086;-81
2023/11/06 19:42:52;;;;;;;9.70;2.67;;;8.80;99.90;;;;;;4901843;28;86570;-81
2023/11/06 19:45:18;;;;;;;7.72;2.20;;;8.80;99.90;;;;;;4906546;28;90555;-81
2023/11/06 19:47:45;;;;;;;9.18;1.83;;;8.70;99.90;;;;;;4907924;28;88660;-81
2023/11/06 19:50:15;;;;;;;8.27;1.98;;;8.70;99.90;;;;;;4906620;28;86866;-82
2023/11/06 19:52:42;;;;;;;11.10;2.40;;;8.70;99.90;;;;;;4890748;28;86356;-81
2023/11/06 19:55:11;;;;;;;8.10;1.80;;;8.70;99.90;;;;;;4905546;28;90105;-80
2023/11/06 19:57:38;;;;;;;9.27;2.33;;;8.70;99.90;;;;;;4906123;28;90688;-82
2023/11/06 20:00:12;;;;;;;9.73;2.17;;;8.70;99.90;;;;;;4888988;28;86344;-80
2023/11/06 20:02:39;;;;;;;9.82;1.88;;;8.70;99.90;;;;;;4888456;28;86569;-81
2023/11/06 20:05:11;;;;;;;7.78;1.70;;;8.60;99.90;;;;;;4905346;28;89542;-81
2023/11/06 20:07:38;;;;;;;15.65;2.13;;;8.70;99.90;;;;;;4881836;28;88838;-81
2023/11/06 20:10:03;;;;;;;11.75;1.98;;;8.60;99.90;;;;;;4900573;28;86473;-81
2023/11/06 20:12:29;;;;;;;6.55;1.45;;;8.60;99.90;;;;;;4902228;28;86589;-80
2023/11/06 20:14:55;;;;;;;10.70;2.83;;;8.60;99.90;;;;;;4899234;28;90156;-80
2023/11/06 20:17:21;;;;;;;10.18;1.50;;;8.60;99.90;;;;;;4902164;28;89668;-81
2023/11/06 20:19:46;;;;;;;10.38;1.63;;;8.70;99.90;;;;;;4883228;28;86821;-81
2023/11/06 20:22:12;;;;;;;7.38;2.38;;;8.70;99.90;;;;;;4897527;28;86330;-81
2023/11/06 20:24:38;;;;;;;13.38;2.53;;;8.70;99.90;;;;;;4901011;28;90429;-81
2023/11/06 20:27:04;;;;;;;11.60;2.83;;;8.70;99.90;;;;;;4885470;28;86875;-81
2023/11/06 20:29:30;;;;;;;9.93;2.80;;;8.70;99.90;;;;;;4900936;28;86178;-81
2023/11/06 20:31:55;;;;;;;12.93;4.85;;;8.70;99.90;;;;;;4896218;28;85894;-81
2023/11/06 20:34:21;;;;;;;14.38;4.15;;;8.70;99.90;;;;;;4884023;28;86586;-81
2023/11/06 20:36:48;;;;;;;11.77;4.00;;;8.70;99.90;;;;;;4885450;28;86495;-81
2023/11/06 20:39:16;;;;;;;17.60;2.85;;;8.70;99.90;;;;;;4900153;28;87482;-81
2023/11/06 20:41:43;;;;;;;7.30;1.77;;;8.70;99.90;;;;;;4896325;28;88449;-81
2023/11/06 20:44:10;;;;;;;16.15;2.92;;;8.70;99.90;;;;;;4897081;28;89195;-80
2023/11/06 20:46:37;;;;;;;10.52;2.17;;;8.70;99.90;;;;;;4900593;28;89772;-81
2023/11/06 20:49:03;;;;;;;11.75;2.03;;;8.80;99.90;;;;;;4897826;28;86827;-80
2023/11/06 20:51:37;;;;;;;4.97;1.30;;;8.70;99.90;;;;;;4883063;28;86598;-81
2023/11/06 20:54:04;;;;;;;11.55;1.75;;;8.80;99.90;;;;;;4902856;28;90256;-81
2023/11/06 20:56:29;;;;;;;8.13;1.25;;;8.70;99.90;;;;;;4885418;28;88758;-82
2023/11/06 20:58:57;;;;;;;7.45;1.88;;;8.70;99.90;;;;;;4890865;28;86042;-81
2023/11/06 21:01:22;;;;;;;5.65;1.45;;;8.70;99.90;;;;;;4886666;28;86774;-81
2023/11/06 21:03:48;;;;;;;9.18;2.42;;;8.70;99.90;;;;;;4895297;28;86468;-82
2023/11/06 21:06:13;;;;;;;5.30;2.10;;;8.70;99.90;;;;;;4887886;28;86434;-82
2023/11/06 21:08:39;;;;;;;9.13;1.55;;;8.70;99.90;;;;;;4890095;28;86289;-81
2023/11/06 21:11:07;;;;;;;6.28;1.65;;;8.60;99.90;;;;;;4909747;28;85819;-81
2023/11/06 21:13:32;;;;;;;5.93;1.92;;;8.70;99.90;;;;;;4907297;28;88840;-81
2023/11/06 21:15:58;;;;;;;9.88;1.95;;;8.70;99.90;;;;;;4905810;28;88958;-82
2023/11/06 21:18:24;;;;;;;15.93;2.05;;;8.70;99.90;;;;;;4903827;28;86224;-81
2023/11/06 21:20:49;;;;;;;10.00;1.60;;;8.70;99.90;;;;;;4885555;28;86230;-80
2023/11/06 21:23:15;;;;;;;5.53;1.42;;;8.70;99.90;;;;;;4903798;28;90184;-81
2023/11/06 21:25:41;;;;;;;9.18;1.80;;;8.70;99.90;;;;;;4903039;28;90251;-81
2023/11/06 21:28:09;;;;;;;11.15;1.60;;;8.80;99.90;;;;;;4889248;28;86993;-81
2023/11/06 21:30:34;;;;;;;7.28;1.67;;;8.70;99.90;;;;;;4900653;28;86661;-81
2023/11/06 21:33:01;;;;;;;9.57;1.80;;;8.70;99.90;;;;;;4889753;28;86855;-81
2023/11/06 21:35:26;;;;;;;10.77;1.58;;;8.80;99.90;;;;;;4882565;28;89777;-81
2023/11/06 21:37:55;;;;;;;7.35;1.50;;;8.70;99.90;;;;;;4904173;28;86942;-81
2023/11/06 21:40:21;;;;;;;10.65;1.85;;;8.80;99.90;;;;;;4886219;28;86027;-81
2023/11/06 21:42:46;;;;;;;10.50;2.97;;;8.80;99.90;;;;;;4898289;28;90093;-80
2023/11/06 21:45:12;;;;;;;8.45;1.70;;;8.80;99.90;;;;;;4882114;28;86988;-81
2023/11/06 21:47:38;;;;;;;5.28;1.45;;;8.80;99.90;;;;;;4886873;28;86294;-81
2023/11/06 21:50:05;;;;;;;10.32;1.88;;;8.80;99.90;;;;;;4904561;28;86368;-81
2023/11/06 21:52:31;;;;;;;6.50;2.00;;;8.80;99.90;;;;;;4901908;28;89985;-80
2023/11/06 21:55:00;;;;;;;5.85;2.03;;;8.80;99.90;;;;;;4899436;28;89153;-81
2023/11/06 21:57:26;;;;;;;11.93;2.10;;;8.80;99.90;;;;;;4888710;28;86289;-81
2023/11/06 21:59:52;;;;;;;5.22;1.20;;;8.80;99.90;;;;;;4900663;28;86377;-81
2023/11/06 22:02:17;;;;;;;8.10;1.58;;;8.80;99.90;;;;;;4886151;28;88877;-81
2023/11/06 22:04:44;;;;;;;6.53;1.58;;;8.80;99.90;;;;;;4896490;28;90110;-81
2023/11/06 22:07:10;;;;;;;9.70;1.33;;;8.80;99.90;;;;;;4889305;28;86097;-81
2023/11/06 22:09:36;;;;;;;16.60;2.22;;;8.80;99.90;;;;;;4904448;28;86596;-81
2023/11/06 22:12:02;;;;;;;10.30;2.63;;;8.80;99.90;;;;;;4879735;28;90640;-80
2023/11/06 22:14:27;;;;;;;10.10;1.58;;;8.70;99.90;;;;;;4886467;28;90130;-81
2023/11/06 22:16:53;;;;;;;8.70;1.92;;;8.70;99.90;;;;;;4903165;28;87292;-81
2023/11/06 22:19:22;;;;;;;10.63;2.63;;;8.70;99.90;;;;;;4904359;28;86325;-81
2023/11/06 22:21:49;;;;;;;10.52;1.50;;;8.70;99.90;;;;;;4886966;28;87492;-81
2023/11/06 22:24:14;;;;;;;7.32;1.35;;;8.70;99.90;;;;;;4904771;28;87126;-79
2023/11/06 22:26:40;;;;;;;9.07;1.80;;;8.70;99.90;;;;;;4881483;28;86348;-80
2023/11/06 22:29:06;;;;;;;7.85;1.58;;;8.70;99.90;;;;;;4887065;28;86547;-81
2023/11/06 22:31:32;;;;;;;7.53;1.52;;;8.70;99.90;;;;;;4883893;28;89592;-80
2023/11/06 22:33:57;;;;;;;5.07;1.20;;;8.70;99.90;;;;;;4904152;28;88525;-81
2023/11/06 22:36:23;;;;;;;10.00;2.03;;;8.70;99.90;;;;;;4899307;28;86434;-80
2023/11/06 22:38:51;;;;;;;7.18;2.20;;;8.70;99.90;;;;;;4884219;28;87080;-81
2023/11/06 22:41:18;;;;;;;10.07;1.60;;;8.70;99.90;;;;;;4900615;28;90557;-81
2023/11/06 22:43:43;;;;;;;5.55;1.25;;;8.70;99.90;;;;;;4899671;28;88301;-80
2023/11/06 22:46:09;;;;;;;6.78;1.40;;;8.80;99.90;;;;;;4889568;28;85965;-80
2023/11/06 22:48:35;;;;;;;15.13;1.80;;;8.70;99.90;;;;;;4905647;28;85966;-81
2023/11/06 22:51:00;;;;;;;7.82;1.60;;;8.70;99.90;;;;;;4885119;28;90395;-79
2023/11/06 22:53:26;;;;;;;7.57;1.58;;;8.80;99.90;;;;;;4900648;28;91088;-80
2023/11/06 22:55:54;;;;;;;7.95;1.92;;;8.70;99.90;;;;;;4900229;28;87912;-80
2023/11/06 22:58:19;;;;;;;10.43;1.40;;;8.70;99.90;;;;;;4888099;28;85870;-81
2023/11/06 23:00:46;;;;;;;9.65;1.50;;;8.70;99.90;;;;;;4902144;28;89258;-80
2023/11/06 23:03:12;;;;;;;11.70;2.22;;;8.70;99.90;;;;;;4886373;28;86719;-81
2023/11/06 23:05:41;;;;;;;12.82;2.28;;;8.80;99.90;;;;;;4884172;28;86836;-80
2023/11/06 23:08:06;;;;;;;6.75;1.50;;;8.80;99.90;;;;;;4884948;28;86078;-79
2023/11/06 23:10:32;;;;;;;9.82;1.83;;;8.80;99.90;;;;;;4898821;28;88844;-80
2023/11/06 23:12:58;;;;;;;6.25;1.58;;;8.80;99.90;;;;;;4898636;28;88227;-80
2023/11/06 23:15:23;;;;;;;9.80;2.30;;;8.70;99.90;;;;;;4886555;28;86046;-81
2023/11/06 23:17:49;;;;;;;6.90;1.50;;;8.80;99.90;;;;;;4887562;28;86287;-80
2023/11/06 23:20:19;;;;;;;14.73;2.85;;;8.70;99.90;;;;;;4886508;28;88806;-80
2023/11/06 23:22:45;;;;;;;6.95;1.95;;;8.70;99.90;;;;;;4886201;28;88309;-79
2023/11/06 23:25:11;;;;;;;7.60;1.30;;;8.70;99.90;;;;;;4900224;28;86265;-79
2023/11/06 23:27:39;;;;;;;11.23;1.55;;;8.70;99.90;;;;;;4904597;28;86687;-79
2023/11/06 23:30:06;;;;;;;13.57;2.17;;;8.70;99.90;;;;;;4902793;28;90293;-80
2023/11/06 23:32:34;;;;;;;8.95;2.10;;;8.70;99.90;;;;;;4891668;28;86332;-79
2023/11/06 23:35:03;;;;;;;7.05;1.60;;;8.70;99.90;;;;;;4884542;28;86148;-80
2023/11/06 23:37:29;;;;;;;11.82;2.25;;;8.70;99.90;;;;;;4905866;28;86054;-80
2023/11/06 23:39:55;;;;;;;7.38;1.80;;;8.70;99.90;;;;;;4902563;28;88591;-80
2023/11/06 23:42:21;;;;;;;7.05;1.77;;;8.70;99.90;;;;;;4880058;28;87116;-80
2023/11/06 23:44:46;;;;;;;10.70;2.17;;;8.70;99.90;;;;;;4902600;28;86720;-80
2023/11/06 23:47:12;;;;;;;7.07;1.60;;;8.60;99.90;;;;;;4903722;28;86257;-80
2023/11/06 23:49:38;;;;;;;7.05;1.92;;;8.60;99.90;;;;;;4884659;28;90899;-80
2023/11/06 23:52:04;;;;;;;6.30;1.55;;;8.60;99.90;;;;;;4884328;28;89730;-79
2023/11/06 23:54:30;;;;;;;7.82;2.00;;;8.60;99.90;;;;;;4888625;28;86458;-80
2023/11/06 23:56:59;;;;;;;6.15;1.70;;;8.60;99.90;;;;;;4901234;28;86103;-80
2023/11/06 23:59:25;;;;;;;8.85;1.58;;;8.50;99.90;;;;;;4901749;28;87856;-80
